KTAD/TAD METAR and TAF weather

Enter ICAO airport designator
Station Type Date Time Source
KTAD METAR 2022/01/26 20:54 UTC NOAA

KTAD 262054Z AUTO 00000KT 10SM CLR 07/M06 A2994 RMK AO2 SLP141 T00671061 56023


Station Type Date Time Source
KTAD Decoded METAR 2022/01/26 20:54 UTC NOAA

Trinidad, Perry Stokes Airport, CO, United States (KTAD) 37-16N 104-26W
Jan 26, 2022 - 03:54 PM EST / 2022.01.26 2054 UTC
Wind: Calm:0
Visibility: 10 mile(s):0
Sky conditions: clear
Temperature: 44.1 F (6.7 C)
Dew Point: 21.0 F (-6.1 C)
Relative Humidity: 39%
Pressure (altimeter): 29.94 in. Hg (1013 hPa)
Pressure tendency: 0.07 inches (2.3 hPa) lower than three hours ago
ob: KTAD 262054Z AUTO 00000KT 10SM CLR 07/M06 A2994 RMK AO2 SLP141 T00671061 56023
cycle: 21

Station Type Date Time Source
KTAD TAF UTC NOAA

Error!

Example: see airport list